Porters Falls, West Virginia
Current Conditions -  °F | °C
As of 5:26 PM on Tuesday 21 Oct 2014 (Local Time) from KCKB Reporting Station
Light Rain Light Rain  
Wind Chill: 50°   Ceiling: 4600
Heat Index: 50°   Visibility: 5mi
Dew Point: 48°   Wind: 7mph
Humidity: 93%   Direction: 280°W
Pressure: 29.94"   Gusts: NA
Location:  39.58°N, 80.78°W
Report Text: KCKB 212126Z 28006KT 5SM -RA BR FEW016 BKN046 OVC055 10/09 A2994 RMK AO2 T01000089 PNO $
Loading
Personal Weather Stations






























Interactive Weather Map
Tropical Storm Tracking
New forecast layout! Learn more

10-Day Weather Forecast

Advertisements
Track Severe Weather on mobile